Ridge, Texas
Current Conditions -  °F | °C
As of 1:15 PM on Friday 24 Oct 2014 (Local Time) from KLHB Reporting Station
Haze Haze  
Wind Chill: 76°   Ceiling: Unl
Heat Index: 78°   Visibility: 3mi
Dew Point: 56°   Wind: 5mph
Humidity: 50%   Direction: 180°S
Pressure: 30.17"   Gusts: NA
Location:  31.0654°N, 96.4194°W
Report Text: KLHB 241815Z AUTO 18004KT 3SM HZ CLR 25/14 A3017 RMK AO2 T02460136
Loading
Personal Weather Stations






























Interactive Weather Map New forecast layout! Learn more

10-Day Weather Forecast

Advertisements
Track Severe Weather on mobile